Washington, Illinois
Current Conditions -  °F | °C
As of 7:54 PM on Wednesday 22 Oct 2014 (Local Time) from KPIA Reporting Station
Clear Clear  
Wind Chill: 53°   Ceiling: Unl
Heat Index: 53°   Visibility: 10mi
Dew Point: 36°   Wind: 5mph
Humidity: 52%   Direction: 110°ESE
Pressure: 30.24"   Gusts: NA
Location:  40.7°N, 89.4°W
Report Text: KPIA 230054Z 11004KT 10SM CLR 12/02 A3024 RMK AO2 SLP242 T01170022
Loading
Personal Weather Stations






























Interactive Weather Map
Tropical Storm Tracking
New forecast layout! Learn more

10-Day Weather Forecast

Advertisements
Track Severe Weather on mobile